sensor_id;sensor_type;location;lat;lon;timestamp;P1;durP1;ratioP1;P2;durP2;ratioP2
40286;SDS011;25998;46.604;13.610;2024-01-30T00:00:59;5.22;;;2.75;;
40286;SDS011;25998;46.604;13.610;2024-01-30T00:04:10;5.63;;;2.65;;
40286;SDS011;25998;46.604;13.610;2024-01-30T00:07:21;4.72;;;2.80;;
40286;SDS011;25998;46.604;13.610;2024-01-30T00:10:32;5.25;;;3.20;;
40286;SDS011;25998;46.604;13.610;2024-01-30T00:13:43;4.90;;;2.78;;
40286;SDS011;25998;46.604;13.610;2024-01-30T00:16:54;5.22;;;3.00;;
40286;SDS011;25998;46.604;13.610;2024-01-30T00:20:05;4.32;;;2.80;;
40286;SDS011;25998;46.604;13.610;2024-01-30T00:23:17;4.05;;;3.20;;
40286;SDS011;25998;46.604;13.610;2024-01-30T00:26:28;4.40;;;2.63;;
40286;SDS011;25998;46.604;13.610;2024-01-30T00:29:38;4.25;;;2.65;;
40286;SDS011;25998;46.604;13.610;2024-01-30T00:32:49;6.22;;;2.92;;
40286;SDS011;25998;46.604;13.610;2024-01-30T00:36:00;6.63;;;3.25;;
40286;SDS011;25998;46.604;13.610;2024-01-30T00:39:11;4.55;;;2.95;;
40286;SDS011;25998;46.604;13.610;2024-01-30T00:42:22;4.05;;;2.90;;
40286;SDS011;25998;46.604;13.610;2024-01-30T00:45:34;4.60;;;3.05;;
40286;SDS011;25998;46.604;13.610;2024-01-30T00:48:45;5.60;;;2.90;;
40286;SDS011;25998;46.604;13.610;2024-01-30T00:51:55;5.43;;;2.70;;
40286;SDS011;25998;46.604;13.610;2024-01-30T00:55:06;6.15;;;2.88;;
40286;SDS011;25998;46.604;13.610;2024-01-30T00:58:17;5.93;;;3.25;;
40286;SDS011;25998;46.604;13.610;2024-01-30T01:01:29;5.72;;;2.90;;
40286;SDS011;25998;46.604;13.610;2024-01-30T01:04:40;5.38;;;3.00;;
40286;SDS011;25998;46.604;13.610;2024-01-30T01:07:51;4.30;;;2.83;;
40286;SDS011;25998;46.604;13.610;2024-01-30T01:11:02;4.90;;;2.97;;
40286;SDS011;25998;46.604;13.610;2024-01-30T01:14:13;5.50;;;3.25;;
40286;SDS011;25998;46.604;13.610;2024-01-30T01:17:24;5.50;;;2.92;;
40286;SDS011;25998;46.604;13.610;2024-01-30T01:20:35;5.10;;;3.05;;
40286;SDS011;25998;46.604;13.610;2024-01-30T01:23:46;3.95;;;2.70;;
40286;SDS011;25998;46.604;13.610;2024-01-30T01:26:58;4.13;;;2.95;;
40286;SDS011;25998;46.604;13.610;2024-01-30T01:30:09;3.30;;;2.10;;
40286;SDS011;25998;46.604;13.610;2024-01-30T01:33:21;3.95;;;2.42;;
40286;SDS011;25998;46.604;13.610;2024-01-30T01:36:32;3.33;;;2.00;;
40286;SDS011;25998;46.604;13.610;2024-01-30T01:39:43;3.00;;;2.00;;
40286;SDS011;25998;46.604;13.610;2024-01-30T01:42:55;3.78;;;1.83;;
40286;SDS011;25998;46.604;13.610;2024-01-30T01:46:06;3.55;;;2.20;;
40286;SDS011;25998;46.604;13.610;2024-01-30T01:49:18;3.13;;;2.03;;
40286;SDS011;25998;46.604;13.610;2024-01-30T01:52:31;3.10;;;1.85;;
40286;SDS011;25998;46.604;13.610;2024-01-30T01:55:42;4.68;;;2.10;;
40286;SDS011;25998;46.604;13.610;2024-01-30T01:58:54;3.25;;;1.90;;
40286;SDS011;25998;46.604;13.610;2024-01-30T02:02:05;3.38;;;1.95;;
40286;SDS011;25998;46.604;13.610;2024-01-30T02:05:21;3.35;;;1.83;;
40286;SDS011;25998;46.604;13.610;2024-01-30T02:08:32;3.20;;;2.03;;
40286;SDS011;25998;46.604;13.610;2024-01-30T02:11:43;3.25;;;2.17;;
40286;SDS011;25998;46.604;13.610;2024-01-30T02:14:54;3.95;;;1.98;;
40286;SDS011;25998;46.604;13.610;2024-01-30T02:18:05;3.63;;;2.05;;
40286;SDS011;25998;46.604;13.610;2024-01-30T02:21:16;5.50;;;2.85;;
40286;SDS011;25998;46.604;13.610;2024-01-30T02:24:29;3.45;;;2.30;;
40286;SDS011;25998;46.604;13.610;2024-01-30T02:27:40;4.30;;;2.40;;
40286;SDS011;25998;46.604;13.610;2024-01-30T02:30:50;3.33;;;1.80;;
40286;SDS011;25998;46.604;13.610;2024-01-30T02:34:01;5.28;;;2.28;;
40286;SDS011;25998;46.604;13.610;2024-01-30T02:37:12;3.20;;;2.10;;
40286;SDS011;25998;46.604;13.610;2024-01-30T02:40:23;3.55;;;1.98;;
40286;SDS011;25998;46.604;13.610;2024-01-30T02:43:34;4.90;;;2.08;;
40286;SDS011;25998;46.604;13.610;2024-01-30T02:46:45;5.05;;;1.85;;
40286;SDS011;25998;46.604;13.610;2024-01-30T02:49:55;4.03;;;2.22;;
40286;SDS011;25998;46.604;13.610;2024-01-30T02:53:06;3.05;;;2.10;;
40286;SDS011;25998;46.604;13.610;2024-01-30T02:56:17;4.07;;;1.75;;
40286;SDS011;25998;46.604;13.610;2024-01-30T02:59:28;3.25;;;2.13;;
40286;SDS011;25998;46.604;13.610;2024-01-30T03:02:39;3.45;;;1.95;;
40286;SDS011;25998;46.604;13.610;2024-01-30T03:05:50;3.97;;;2.08;;
40286;SDS011;25998;46.604;13.610;2024-01-30T03:09:01;6.65;;;1.90;;
40286;SDS011;25998;46.604;13.610;2024-01-30T03:12:12;3.95;;;2.17;;
40286;SDS011;25998;46.604;13.610;2024-01-30T03:15:23;3.38;;;2.00;;
40286;SDS011;25998;46.604;13.610;2024-01-30T03:18:34;3.70;;;2.10;;
40286;SDS011;25998;46.604;13.610;2024-01-30T03:21:44;3.30;;;1.80;;
40286;SDS011;25998;46.604;13.610;2024-01-30T03:24:55;2.85;;;1.60;;
40286;SDS011;25998;46.604;13.610;2024-01-30T03:28:06;2.53;;;1.55;;
40286;SDS011;25998;46.604;13.610;2024-01-30T03:31:17;3.42;;;1.90;;
40286;SDS011;25998;46.604;13.610;2024-01-30T03:34:28;3.03;;;2.10;;
40286;SDS011;25998;46.604;13.610;2024-01-30T03:37:39;4.07;;;1.95;;
40286;SDS011;25998;46.604;13.610;2024-01-30T03:40:50;2.85;;;2.05;;
40286;SDS011;25998;46.604;13.610;2024-01-30T03:44:00;3.40;;;1.92;;
40286;SDS011;25998;46.604;13.610;2024-01-30T03:47:11;4.05;;;2.28;;
40286;SDS011;25998;46.604;13.610;2024-01-30T03:50:22;4.55;;;2.97;;
40286;SDS011;25998;46.604;13.610;2024-01-30T03:53:33;4.63;;;2.88;;
40286;SDS011;25998;46.604;13.610;2024-01-30T03:56:44;4.55;;;2.65;;
40286;SDS011;25998;46.604;13.610;2024-01-30T03:59:55;4.07;;;2.40;;
40286;SDS011;25998;46.604;13.610;2024-01-30T04:03:06;4.80;;;3.10;;
40286;SDS011;25998;46.604;13.610;2024-01-30T04:06:17;5.47;;;2.75;;
40286;SDS011;25998;46.604;13.610;2024-01-30T04:09:27;4.03;;;2.45;;
40286;SDS011;25998;46.604;13.610;2024-01-30T04:12:39;6.00;;;2.70;;
40286;SDS011;25998;46.604;13.610;2024-01-30T04:15:50;5.28;;;3.17;;
40286;SDS011;25998;46.604;13.610;2024-01-30T04:19:01;7.15;;;3.63;;
40286;SDS011;25998;46.604;13.610;2024-01-30T04:22:11;7.85;;;4.53;;
40286;SDS011;25998;46.604;13.610;2024-01-30T04:25:22;6.93;;;4.25;;
40286;SDS011;25998;46.604;13.610;2024-01-30T04:28:33;8.50;;;4.15;;
40286;SDS011;25998;46.604;13.610;2024-01-30T04:31:44;8.07;;;4.30;;
40286;SDS011;25998;46.604;13.610;2024-01-30T04:34:55;8.88;;;4.35;;
40286;SDS011;25998;46.604;13.610;2024-01-30T04:38:06;6.72;;;3.65;;
40286;SDS011;25998;46.604;13.610;2024-01-30T04:41:17;6.38;;;3.83;;
40286;SDS011;25998;46.604;13.610;2024-01-30T04:44:27;6.53;;;3.63;;
40286;SDS011;25998;46.604;13.610;2024-01-30T04:47:38;5.78;;;3.83;;
40286;SDS011;25998;46.604;13.610;2024-01-30T04:50:49;7.65;;;4.07;;
40286;SDS011;25998;46.604;13.610;2024-01-30T04:54:00;7.15;;;3.58;;
40286;SDS011;25998;46.604;13.610;2024-01-30T04:57:11;5.20;;;3.20;;
40286;SDS011;25998;46.604;13.610;2024-01-30T05:00:22;5.40;;;3.38;;
40286;SDS011;25998;46.604;13.610;2024-01-30T05:03:33;6.95;;;3.60;;
40286;SDS011;25998;46.604;13.610;2024-01-30T05:06:45;7.32;;;3.90;;
40286;SDS011;25998;46.604;13.610;2024-01-30T05:09:56;6.80;;;3.63;;
40286;SDS011;25998;46.604;13.610;2024-01-30T05:13:07;7.32;;;4.07;;
40286;SDS011;25998;46.604;13.610;2024-01-30T05:16:18;8.57;;;4.20;;
40286;SDS011;25998;46.604;13.610;2024-01-30T05:19:29;9.07;;;4.85;;
40286;SDS011;25998;46.604;13.610;2024-01-30T05:22:40;10.57;;;5.07;;
40286;SDS011;25998;46.604;13.610;2024-01-30T05:25:55;8.70;;;4.95;;
40286;SDS011;25998;46.604;13.610;2024-01-30T05:29:06;10.23;;;5.13;;
40286;SDS011;25998;46.604;13.610;2024-01-30T05:32:17;9.30;;;4.80;;
40286;SDS011;25998;46.604;13.610;2024-01-30T05:35:28;11.68;;;5.57;;
40286;SDS011;25998;46.604;13.610;2024-01-30T05:38:39;11.95;;;6.50;;
40286;SDS011;25998;46.604;13.610;2024-01-30T05:41:50;13.93;;;5.97;;
40286;SDS011;25998;46.604;13.610;2024-01-30T05:45:01;14.60;;;6.97;;
40286;SDS011;25998;46.604;13.610;2024-01-30T05:48:12;16.35;;;7.70;;
40286;SDS011;25998;46.604;13.610;2024-01-30T05:51:23;12.48;;;6.50;;
40286;SDS011;25998;46.604;13.610;2024-01-30T05:54:34;12.18;;;5.93;;
40286;SDS011;25998;46.604;13.610;2024-01-30T05:57:45;9.68;;;5.07;;
40286;SDS011;25998;46.604;13.610;2024-01-30T06:00:55;11.30;;;6.22;;
40286;SDS011;25998;46.604;13.610;2024-01-30T06:04:07;10.20;;;4.82;;
40286;SDS011;25998;46.604;13.610;2024-01-30T06:07:18;11.05;;;5.70;;
40286;SDS011;25998;46.604;13.610;2024-01-30T06:10:29;8.48;;;4.90;;
40286;SDS011;25998;46.604;13.610;2024-01-30T06:13:40;9.85;;;5.53;;
40286;SDS011;25998;46.604;13.610;2024-01-30T06:16:51;12.55;;;6.38;;
40286;SDS011;25998;46.604;13.610;2024-01-30T06:20:01;12.50;;;6.47;;
40286;SDS011;25998;46.604;13.610;2024-01-30T06:23:13;11.02;;;6.63;;
40286;SDS011;25998;46.604;13.610;2024-01-30T06:26:24;9.88;;;6.05;;
40286;SDS011;25998;46.604;13.610;2024-01-30T06:29:35;9.35;;;5.47;;
40286;SDS011;25998;46.604;13.610;2024-01-30T06:32:46;9.85;;;5.63;;
40286;SDS011;25998;46.604;13.610;2024-01-30T06:35:57;13.02;;;5.50;;
40286;SDS011;25998;46.604;13.610;2024-01-30T06:39:08;22.73;;;17.80;;
40286;SDS011;25998;46.604;13.610;2024-01-30T06:42:19;58.85;;;30.20;;
40286;SDS011;25998;46.604;13.610;2024-01-30T06:45:30;21.95;;;11.57;;
40286;SDS011;25998;46.604;13.610;2024-01-30T06:48:41;110.70;;;56.75;;
40286;SDS011;25998;46.604;13.610;2024-01-30T06:51:54;41.28;;;22.13;;
40286;SDS011;25998;46.604;13.610;2024-01-30T06:55:06;26.92;;;13.60;;
40286;SDS011;25998;46.604;13.610;2024-01-30T06:58:17;45.25;;;20.40;;
40286;SDS011;25998;46.604;13.610;2024-01-30T07:01:28;17.60;;;8.63;;
40286;SDS011;25998;46.604;13.610;2024-01-30T07:04:40;34.88;;;17.52;;
40286;SDS011;25998;46.604;13.610;2024-01-30T07:07:52;19.65;;;11.68;;
40286;SDS011;25998;46.604;13.610;2024-01-30T07:11:02;13.13;;;6.90;;
40286;SDS011;25998;46.604;13.610;2024-01-30T07:14:13;10.52;;;6.45;;
40286;SDS011;25998;46.604;13.610;2024-01-30T07:17:24;11.70;;;7.65;;
40286;SDS011;25998;46.604;13.610;2024-01-30T07:20:35;10.18;;;6.90;;
40286;SDS011;25998;46.604;13.610;2024-01-30T07:23:46;22.88;;;15.50;;
40286;SDS011;25998;46.604;13.610;2024-01-30T07:26:57;82.90;;;49.08;;
40286;SDS011;25998;46.604;13.610;2024-01-30T07:30:08;45.97;;;29.30;;
40286;SDS011;25998;46.604;13.610;2024-01-30T07:33:19;48.72;;;29.35;;
40286;SDS011;25998;46.604;13.610;2024-01-30T07:36:30;36.40;;;22.88;;
40286;SDS011;25998;46.604;13.610;2024-01-30T07:39:41;35.67;;;21.88;;
40286;SDS011;25998;46.604;13.610;2024-01-30T07:42:55;54.45;;;28.77;;
40286;SDS011;25998;46.604;13.610;2024-01-30T07:46:06;87.35;;;44.85;;
40286;SDS011;25998;46.604;13.610;2024-01-30T07:49:17;145.73;;;65.97;;
40286;SDS011;25998;46.604;13.610;2024-01-30T07:52:28;91.95;;;44.72;;
40286;SDS011;25998;46.604;13.610;2024-01-30T07:55:39;74.20;;;36.67;;
40286;SDS011;25998;46.604;13.610;2024-01-30T07:58:59;92.50;;;41.97;;
40286;SDS011;25998;46.604;13.610;2024-01-30T08:02:13;58.10;;;29.35;;
40286;SDS011;25998;46.604;13.610;2024-01-30T08:05:25;29.95;;;16.13;;
40286;SDS011;25998;46.604;13.610;2024-01-30T08:08:36;33.25;;;18.25;;
40286;SDS011;25998;46.604;13.610;2024-01-30T08:11:47;29.70;;;15.63;;
40286;SDS011;25998;46.604;13.610;2024-01-30T08:14:58;24.50;;;13.77;;
40286;SDS011;25998;46.604;13.610;2024-01-30T08:18:09;20.67;;;11.90;;
40286;SDS011;25998;46.604;13.610;2024-01-30T08:21:20;23.23;;;13.32;;
40286;SDS011;25998;46.604;13.610;2024-01-30T08:24:31;21.10;;;12.13;;
40286;SDS011;25998;46.604;13.610;2024-01-30T08:27:42;20.27;;;12.60;;
40286;SDS011;25998;46.604;13.610;2024-01-30T08:30:53;17.60;;;9.48;;
40286;SDS011;25998;46.604;13.610;2024-01-30T08:34:04;15.13;;;6.82;;
40286;SDS011;25998;46.604;13.610;2024-01-30T08:37:14;7.75;;;5.57;;
40286;SDS011;25998;46.604;13.610;2024-01-30T08:40:26;6.18;;;4.18;;
40286;SDS011;25998;46.604;13.610;2024-01-30T08:43:37;6.47;;;4.25;;
40286;SDS011;25998;46.604;13.610;2024-01-30T08:46:48;7.45;;;4.72;;
40286;SDS011;25998;46.604;13.610;2024-01-30T08:50:00;6.90;;;3.97;;
40286;SDS011;25998;46.604;13.610;2024-01-30T08:53:11;6.57;;;4.43;;
40286;SDS011;25998;46.604;13.610;2024-01-30T08:56:22;7.15;;;3.90;;
40286;SDS011;25998;46.604;13.610;2024-01-30T08:59:33;10.23;;;4.72;;
40286;SDS011;25998;46.604;13.610;2024-01-30T09:02:44;7.10;;;3.75;;
40286;SDS011;25998;46.604;13.610;2024-01-30T09:05:55;5.43;;;3.63;;
40286;SDS011;25998;46.604;13.610;2024-01-30T09:09:05;5.05;;;3.72;;
40286;SDS011;25998;46.604;13.610;2024-01-30T09:12:16;7.28;;;4.28;;
40286;SDS011;25998;46.604;13.610;2024-01-30T09:15:27;8.23;;;3.22;;
40286;SDS011;25998;46.604;13.610;2024-01-30T09:18:38;5.25;;;3.53;;
40286;SDS011;25998;46.604;13.610;2024-01-30T09:21:49;7.97;;;3.30;;
40286;SDS011;25998;46.604;13.610;2024-01-30T09:25:00;5.55;;;3.30;;
40286;SDS011;25998;46.604;13.610;2024-01-30T09:28:11;28.70;;;6.15;;
40286;SDS011;25998;46.604;13.610;2024-01-30T09:31:22;6.25;;;3.88;;
40286;SDS011;25998;46.604;13.610;2024-01-30T09:34:32;10.05;;;4.28;;
40286;SDS011;25998;46.604;13.610;2024-01-30T09:37:43;7.78;;;4.88;;
40286;SDS011;25998;46.604;13.610;2024-01-30T09:40:54;34.30;;;6.32;;
40286;SDS011;25998;46.604;13.610;2024-01-30T09:44:08;8.65;;;4.45;;
40286;SDS011;25998;46.604;13.610;2024-01-30T09:47:20;13.93;;;4.35;;
40286;SDS011;25998;46.604;13.610;2024-01-30T09:50:31;9.07;;;3.70;;
40286;SDS011;25998;46.604;13.610;2024-01-30T09:53:46;7.20;;;3.45;;
40286;SDS011;25998;46.604;13.610;2024-01-30T09:56:58;17.77;;;4.53;;
40286;SDS011;25998;46.604;13.610;2024-01-30T10:00:09;10.73;;;3.70;;
40286;SDS011;25998;46.604;13.610;2024-01-30T10:03:21;6.20;;;3.00;;
40286;SDS011;25998;46.604;13.610;2024-01-30T10:06:32;26.30;;;4.97;;
40286;SDS011;25998;46.604;13.610;2024-01-30T10:09:43;8.30;;;3.55;;
40286;SDS011;25998;46.604;13.610;2024-01-30T10:12:54;9.73;;;3.58;;
40286;SDS011;25998;46.604;13.610;2024-01-30T10:16:05;7.32;;;3.80;;
40286;SDS011;25998;46.604;13.610;2024-01-30T10:19:16;8.73;;;4.05;;
40286;SDS011;25998;46.604;13.610;2024-01-30T10:22:27;6.97;;;3.95;;
40286;SDS011;25998;46.604;13.610;2024-01-30T10:25:38;5.65;;;3.75;;
40286;SDS011;25998;46.604;13.610;2024-01-30T10:28:49;12.27;;;4.32;;
40286;SDS011;25998;46.604;13.610;2024-01-30T10:32:01;6.65;;;3.10;;
40286;SDS011;25998;46.604;13.610;2024-01-30T10:35:13;9.00;;;3.50;;
40286;SDS011;25998;46.604;13.610;2024-01-30T10:38:24;8.32;;;3.17;;
40286;SDS011;25998;46.604;13.610;2024-01-30T10:41:42;7.82;;;3.08;;
40286;SDS011;25998;46.604;13.610;2024-01-30T10:45:05;6.45;;;2.70;;
40286;SDS011;25998;46.604;13.610;2024-01-30T10:48:22;30.92;;;8.13;;
40286;SDS011;25998;46.604;13.610;2024-01-30T10:51:39;11.13;;;3.40;;
40286;SDS011;25998;46.604;13.610;2024-01-30T10:54:53;6.63;;;2.30;;
40286;SDS011;25998;46.604;13.610;2024-01-30T10:58:04;7.82;;;2.28;;
40286;SDS011;25998;46.604;13.610;2024-01-30T11:01:15;6.63;;;2.45;;
40286;SDS011;25998;46.604;13.610;2024-01-30T11:04:27;4.10;;;2.30;;
40286;SDS011;25998;46.604;13.610;2024-01-30T11:07:45;4.70;;;2.25;;
40286;SDS011;25998;46.604;13.610;2024-01-30T11:10:56;5.55;;;2.30;;
40286;SDS011;25998;46.604;13.610;2024-01-30T11:14:09;8.52;;;2.10;;
40286;SDS011;25998;46.604;13.610;2024-01-30T11:17:20;5.45;;;2.60;;
40286;SDS011;25998;46.604;13.610;2024-01-30T11:20:31;5.07;;;1.92;;
40286;SDS011;25998;46.604;13.610;2024-01-30T11:23:42;4.97;;;1.63;;
40286;SDS011;25998;46.604;13.610;2024-01-30T11:26:56;4.15;;;1.83;;
40286;SDS011;25998;46.604;13.610;2024-01-30T11:30:09;3.78;;;1.52;;
40286;SDS011;25998;46.604;13.610;2024-01-30T11:33:27;4.53;;;1.80;;
40286;SDS011;25998;46.604;13.610;2024-01-30T11:36:43;11.02;;;3.33;;
40286;SDS011;25998;46.604;13.610;2024-01-30T11:39:56;3.60;;;1.67;;
40286;SDS011;25998;46.604;13.610;2024-01-30T11:43:08;5.75;;;1.90;;
40286;SDS011;25998;46.604;13.610;2024-01-30T11:46:19;3.75;;;1.75;;
40286;SDS011;25998;46.604;13.610;2024-01-30T11:49:30;3.13;;;1.60;;
40286;SDS011;25998;46.604;13.610;2024-01-30T11:52:41;7.53;;;2.67;;
40286;SDS011;25998;46.604;13.610;2024-01-30T11:55:53;2.88;;;1.65;;
40286;SDS011;25998;46.604;13.610;2024-01-30T11:59:04;4.30;;;2.17;;
40286;SDS011;25998;46.604;13.610;2024-01-30T12:02:15;3.95;;;2.00;;
40286;SDS011;25998;46.604;13.610;2024-01-30T12:05:27;4.30;;;1.92;;
40286;SDS011;25998;46.604;13.610;2024-01-30T12:08:38;5.03;;;2.80;;
40286;SDS011;25998;46.604;13.610;2024-01-30T12:11:49;8.23;;;2.75;;
40286;SDS011;25998;46.604;13.610;2024-01-30T12:15:00;4.95;;;1.90;;
40286;SDS011;25998;46.604;13.610;2024-01-30T12:18:11;4.05;;;1.65;;
40286;SDS011;25998;46.604;13.610;2024-01-30T12:21:22;4.85;;;1.80;;
40286;SDS011;25998;46.604;13.610;2024-01-30T12:24:33;4.85;;;1.88;;
40286;SDS011;25998;46.604;13.610;2024-01-30T12:27:46;4.20;;;1.85;;
40286;SDS011;25998;46.604;13.610;2024-01-30T12:31:01;3.97;;;1.95;;
40286;SDS011;25998;46.604;13.610;2024-01-30T12:34:13;3.75;;;1.73;;
40286;SDS011;25998;46.604;13.610;2024-01-30T12:37:27;3.55;;;1.40;;
40286;SDS011;25998;46.604;13.610;2024-01-30T12:40:39;4.88;;;1.80;;
40286;SDS011;25998;46.604;13.610;2024-01-30T12:43:51;3.58;;;1.90;;
40286;SDS011;25998;46.604;13.610;2024-01-30T12:47:04;7.25;;;2.10;;
40286;SDS011;25998;46.604;13.610;2024-01-30T12:50:16;3.97;;;1.30;;
40286;SDS011;25998;46.604;13.610;2024-01-30T12:53:27;3.72;;;1.60;;
40286;SDS011;25998;46.604;13.610;2024-01-30T12:56:38;3.63;;;1.95;;
40286;SDS011;25998;46.604;13.610;2024-01-30T12:59:49;5.45;;;1.45;;
40286;SDS011;25998;46.604;13.610;2024-01-30T13:03:00;3.30;;;1.80;;
40286;SDS011;25998;46.604;13.610;2024-01-30T13:06:11;3.92;;;1.65;;
40286;SDS011;25998;46.604;13.610;2024-01-30T13:09:23;3.13;;;1.92;;
40286;SDS011;25998;46.604;13.610;2024-01-30T13:12:34;4.22;;;2.08;;
40286;SDS011;25998;46.604;13.610;2024-01-30T13:15:45;4.72;;;2.20;;
40286;SDS011;25998;46.604;13.610;2024-01-30T13:18:57;8.57;;;2.55;;
40286;SDS011;25998;46.604;13.610;2024-01-30T13:22:08;5.00;;;2.38;;
40286;SDS011;25998;46.604;13.610;2024-01-30T13:25:19;9.65;;;2.40;;
40286;SDS011;25998;46.604;13.610;2024-01-30T13:28:29;5.93;;;3.00;;
40286;SDS011;25998;46.604;13.610;2024-01-30T13:31:40;4.55;;;2.70;;
40286;SDS011;25998;46.604;13.610;2024-01-30T13:34:51;5.28;;;2.50;;
40286;SDS011;25998;46.604;13.610;2024-01-30T13:38:02;4.45;;;2.90;;
40286;SDS011;25998;46.604;13.610;2024-01-30T13:41:14;6.70;;;3.30;;
40286;SDS011;25998;46.604;13.610;2024-01-30T13:44:25;6.40;;;2.83;;
40286;SDS011;25998;46.604;13.610;2024-01-30T13:47:36;7.05;;;2.58;;
40286;SDS011;25998;46.604;13.610;2024-01-30T13:50:47;5.13;;;2.70;;
40286;SDS011;25998;46.604;13.610;2024-01-30T13:54:01;5.82;;;2.50;;
40286;SDS011;25998;46.604;13.610;2024-01-30T13:57:11;4.65;;;2.30;;
40286;SDS011;25998;46.604;13.610;2024-01-30T14:00:23;6.90;;;2.50;;
40286;SDS011;25998;46.604;13.610;2024-01-30T14:03:35;5.88;;;2.80;;
40286;SDS011;25998;46.604;13.610;2024-01-30T14:06:46;5.10;;;2.60;;
40286;SDS011;25998;46.604;13.610;2024-01-30T14:09:57;7.05;;;2.65;;
40286;SDS011;25998;46.604;13.610;2024-01-30T14:13:08;4.63;;;2.60;;
40286;SDS011;25998;46.604;13.610;2024-01-30T14:16:19;5.13;;;2.72;;
40286;SDS011;25998;46.604;13.610;2024-01-30T14:19:30;4.22;;;2.50;;
40286;SDS011;25998;46.604;13.610;2024-01-30T14:22:41;5.97;;;2.88;;
40286;SDS011;25998;46.604;13.610;2024-01-30T14:25:52;6.15;;;2.80;;
40286;SDS011;25998;46.604;13.610;2024-01-30T14:29:03;5.50;;;2.67;;
40286;SDS011;25998;46.604;13.610;2024-01-30T14:32:14;5.60;;;2.90;;
40286;SDS011;25998;46.604;13.610;2024-01-30T14:35:25;17.98;;;4.13;;
40286;SDS011;25998;46.604;13.610;2024-01-30T14:38:36;18.17;;;3.67;;
40286;SDS011;25998;46.604;13.610;2024-01-30T14:41:47;11.10;;;2.85;;
40286;SDS011;25998;46.604;13.610;2024-01-30T14:44:57;8.25;;;2.97;;
40286;SDS011;25998;46.604;13.610;2024-01-30T14:48:08;18.73;;;3.97;;
40286;SDS011;25998;46.604;13.610;2024-01-30T14:51:19;29.58;;;4.22;;
40286;SDS011;25998;46.604;13.610;2024-01-30T14:54:30;16.83;;;3.85;;
40286;SDS011;25998;46.604;13.610;2024-01-30T14:57:41;13.77;;;3.72;;
40286;SDS011;25998;46.604;13.610;2024-01-30T15:00:54;11.35;;;3.10;;
40286;SDS011;25998;46.604;13.610;2024-01-30T15:04:05;10.45;;;3.67;;
40286;SDS011;25998;46.604;13.610;2024-01-30T15:07:16;15.40;;;3.97;;
40286;SDS011;25998;46.604;13.610;2024-01-30T15:10:27;12.18;;;3.03;;
40286;SDS011;25998;46.604;13.610;2024-01-30T15:13:38;6.63;;;2.45;;
40286;SDS011;25998;46.604;13.610;2024-01-30T15:16:49;15.60;;;3.92;;
40286;SDS011;25998;46.604;13.610;2024-01-30T15:20:00;8.00;;;3.10;;
40286;SDS011;25998;46.604;13.610;2024-01-30T15:23:11;22.30;;;5.22;;
40286;SDS011;25998;46.604;13.610;2024-01-30T15:26:26;26.85;;;4.97;;
40286;SDS011;25998;46.604;13.610;2024-01-30T15:29:36;22.20;;;5.13;;
40286;SDS011;25998;46.604;13.610;2024-01-30T15:32:47;21.55;;;5.28;;
40286;SDS011;25998;46.604;13.610;2024-01-30T15:35:59;8.77;;;2.75;;
40286;SDS011;25998;46.604;13.610;2024-01-30T15:39:11;7.00;;;3.67;;
40286;SDS011;25998;46.604;13.610;2024-01-30T15:42:23;16.90;;;5.10;;
40286;SDS011;25998;46.604;13.610;2024-01-30T15:45:34;11.55;;;4.50;;
40286;SDS011;25998;46.604;13.610;2024-01-30T15:48:45;11.02;;;5.57;;
40286;SDS011;25998;46.604;13.610;2024-01-30T15:51:57;17.13;;;4.88;;
40286;SDS011;25998;46.604;13.610;2024-01-30T15:55:08;7.53;;;3.70;;
40286;SDS011;25998;46.604;13.610;2024-01-30T15:58:19;9.70;;;4.57;;
40286;SDS011;25998;46.604;13.610;2024-01-30T16:01:31;26.75;;;6.00;;
40286;SDS011;25998;46.604;13.610;2024-01-30T16:04:42;8.20;;;3.97;;
40286;SDS011;25998;46.604;13.610;2024-01-30T16:07:53;23.80;;;6.95;;
40286;SDS011;25998;46.604;13.610;2024-01-30T16:11:04;6.60;;;3.97;;
40286;SDS011;25998;46.604;13.610;2024-01-30T16:14:15;8.45;;;4.57;;
40286;SDS011;25998;46.604;13.610;2024-01-30T16:17:25;16.70;;;5.80;;
40286;SDS011;25998;46.604;13.610;2024-01-30T16:20:36;22.20;;;6.75;;
40286;SDS011;25998;46.604;13.610;2024-01-30T16:23:47;13.55;;;5.82;;
40286;SDS011;25998;46.604;13.610;2024-01-30T16:26:59;8.77;;;4.88;;
40286;SDS011;25998;46.604;13.610;2024-01-30T16:30:10;19.67;;;5.47;;
40286;SDS011;25998;46.604;13.610;2024-01-30T16:33:21;14.77;;;6.15;;
40286;SDS011;25998;46.604;13.610;2024-01-30T16:36:32;15.90;;;5.75;;
40286;SDS011;25998;46.604;13.610;2024-01-30T16:39:43;8.02;;;4.60;;
40286;SDS011;25998;46.604;13.610;2024-01-30T16:42:53;10.10;;;5.32;;
40286;SDS011;25998;46.604;13.610;2024-01-30T16:46:04;16.67;;;6.80;;
40286;SDS011;25998;46.604;13.610;2024-01-30T16:49:15;8.82;;;5.38;;
40286;SDS011;25998;46.604;13.610;2024-01-30T16:52:26;7.93;;;4.20;;
40286;SDS011;25998;46.604;13.610;2024-01-30T16:55:37;8.23;;;5.55;;
40286;SDS011;25998;46.604;13.610;2024-01-30T16:58:48;12.23;;;4.80;;
40286;SDS011;25998;46.604;13.610;2024-01-30T17:01:59;15.88;;;6.78;;
40286;SDS011;25998;46.604;13.610;2024-01-30T17:05:11;11.77;;;5.20;;
40286;SDS011;25998;46.604;13.610;2024-01-30T17:08:22;16.50;;;5.40;;
40286;SDS011;25998;46.604;13.610;2024-01-30T17:11:33;11.20;;;4.95;;
40286;SDS011;25998;46.604;13.610;2024-01-30T17:14:44;10.15;;;5.10;;
40286;SDS011;25998;46.604;13.610;2024-01-30T17:17:57;15.75;;;6.47;;
40286;SDS011;25998;46.604;13.610;2024-01-30T17:21:07;19.25;;;7.13;;
40286;SDS011;25998;46.604;13.610;2024-01-30T17:24:26;16.17;;;5.47;;
40286;SDS011;25998;46.604;13.610;2024-01-30T17:27:36;9.68;;;5.35;;
40286;SDS011;25998;46.604;13.610;2024-01-30T17:30:47;9.02;;;5.75;;
40286;SDS011;25998;46.604;13.610;2024-01-30T17:33:58;18.00;;;6.55;;
40286;SDS011;25998;46.604;13.610;2024-01-30T17:37:09;21.70;;;6.50;;
40286;SDS011;25998;46.604;13.610;2024-01-30T17:40:20;9.02;;;5.05;;
40286;SDS011;25998;46.604;13.610;2024-01-30T17:43:31;12.25;;;5.75;;
40286;SDS011;25998;46.604;13.610;2024-01-30T17:46:42;15.18;;;5.80;;
40286;SDS011;25998;46.604;13.610;2024-01-30T17:49:53;7.38;;;4.80;;
40286;SDS011;25998;46.604;13.610;2024-01-30T17:53:04;7.22;;;4.13;;
40286;SDS011;25998;46.604;13.610;2024-01-30T17:56:15;14.75;;;5.90;;
40286;SDS011;25998;46.604;13.610;2024-01-30T17:59:27;8.50;;;4.75;;
40286;SDS011;25998;46.604;13.610;2024-01-30T18:02:38;8.25;;;4.25;;
40286;SDS011;25998;46.604;13.610;2024-01-30T18:05:49;9.70;;;5.60;;
40286;SDS011;25998;46.604;13.610;2024-01-30T18:09:01;8.80;;;5.95;;
40286;SDS011;25998;46.604;13.610;2024-01-30T18:12:12;7.35;;;4.68;;
40286;SDS011;25998;46.604;13.610;2024-01-30T18:15:24;9.45;;;4.90;;
40286;SDS011;25998;46.604;13.610;2024-01-30T18:18:35;9.23;;;5.13;;
40286;SDS011;25998;46.604;13.610;2024-01-30T18:21:46;21.05;;;6.20;;
40286;SDS011;25998;46.604;13.610;2024-01-30T18:24:57;6.93;;;4.30;;
40286;SDS011;25998;46.604;13.610;2024-01-30T18:28:08;20.95;;;5.70;;
40286;SDS011;25998;46.604;13.610;2024-01-30T18:31:19;8.77;;;4.57;;
40286;SDS011;25998;46.604;13.610;2024-01-30T18:34:30;18.27;;;6.55;;
40286;SDS011;25998;46.604;13.610;2024-01-30T18:37:41;12.52;;;6.18;;
40286;SDS011;25998;46.604;13.610;2024-01-30T18:40:52;13.25;;;6.28;;
40286;SDS011;25998;46.604;13.610;2024-01-30T18:44:03;9.18;;;5.40;;
40286;SDS011;25998;46.604;13.610;2024-01-30T18:47:14;11.20;;;5.95;;